createdAt,value
2019-03-17T00:00:53.185Z,51.34
2019-03-17T00:15:52.570Z,54.77
2019-03-17T00:45:53.586Z,56.53
2019-03-17T01:00:51.508Z,57.54
2019-03-17T01:15:53.475Z,58.33
2019-03-17T01:30:51.822Z,58.66
2019-03-17T01:45:50.704Z,58.52
2019-03-17T02:15:50.721Z,58.86
2019-03-17T02:30:52.915Z,59.39
2019-03-17T02:45:53.076Z,59.96
2019-03-17T03:00:50.870Z,60.22
2019-03-17T03:15:52.898Z,60.23
2019-03-17T03:30:51.293Z,60.15
2019-03-17T03:45:51.232Z,60.18
2019-03-17T04:00:51.105Z,60.53
2019-03-17T04:15:50.994Z,60.27
2019-03-17T04:30:51.422Z,60.91
2019-03-17T04:45:51.418Z,61.50
2019-03-17T05:00:51.283Z,61.65
2019-03-17T05:15:51.089Z,61.51
2019-03-17T05:30:50.589Z,56.43
2019-03-17T05:45:51.481Z,46.50
2019-03-17T06:00:51.895Z,38.38
2019-03-17T06:15:53.833Z,33.74
2019-03-17T06:30:50.879Z,31.48
2019-03-17T06:45:50.695Z,29.83
2019-03-17T07:00:50.602Z,30.06
2019-03-17T07:15:50.580Z,28.84
2019-03-17T07:30:50.927Z,29.77
2019-03-17T07:45:52.991Z,29.83
2019-03-17T08:00:50.582Z,29.44
2019-03-17T08:15:50.732Z,28.78
2019-03-17T08:30:53.508Z,27.46
2019-03-17T08:45:51.665Z,26.82
2019-03-17T09:00:51.548Z,29.71
2019-03-17T09:15:50.913Z,29.07
2019-03-17T09:30:51.219Z,27.75
2019-03-17T09:45:53.331Z,26.36
2019-03-17T10:00:53.396Z,22.79
2019-03-17T10:15:51.091Z,21.85
2019-03-17T10:30:50.613Z,20.63
2019-03-17T10:45:50.643Z,20.69
2019-03-17T11:00:52.585Z,21.03
2019-03-17T11:15:53.904Z,21.99
2019-03-17T11:30:57.367Z,21.93
2019-03-17T11:45:52.446Z,21.43
2019-03-17T12:00:51.318Z,22.32
2019-03-17T12:15:51.021Z,23.73
2019-03-17T12:30:52.709Z,23.24
2019-03-17T12:45:51.431Z,23.12
2019-03-17T13:00:51.025Z,22.72
2019-03-17T13:15:53.152Z,23.87
2019-03-17T13:30:51.470Z,23.72
2019-03-17T13:45:51.214Z,23.29
2019-03-17T14:15:52.349Z,24.94
2019-03-17T14:30:50.761Z,24.00
2019-03-17T14:45:52.155Z,24.47
2019-03-17T15:00:51.711Z,24.69
2019-03-17T15:16:02.194Z,24.87
2019-03-17T15:31:09.705Z,24.55
2019-03-17T15:45:51.012Z,28.23
2019-03-17T16:00:55.390Z,33.96
2019-03-17T16:15:51.333Z,33.05
2019-03-17T16:30:51.141Z,26.42
2019-03-17T16:45:51.174Z,26.06
2019-03-17T17:00:51.082Z,27.21
2019-03-17T17:15:51.108Z,27.95
2019-03-17T19:00:53.914Z,32.98
2019-03-17T19:15:52.109Z,34.38
2019-03-17T19:30:54.088Z,35.69
2019-03-17T19:45:50.656Z,36.66
2019-03-17T20:00:53.072Z,37.05
2019-03-17T20:15:51.238Z,37.91
2019-03-17T20:30:54.110Z,38.42
2019-03-17T20:45:51.007Z,37.86
2019-03-17T21:00:53.527Z,38.85
2019-03-17T21:15:51.620Z,40.30
2019-03-17T21:30:53.013Z,41.20
2019-03-17T21:45:51.453Z,42.12
2019-03-17T22:00:53.907Z,42.42
2019-03-17T22:15:51.485Z,43.40
2019-03-17T22:30:51.300Z,44.36
2019-03-17T22:45:51.342Z,44.81
2019-03-17T23:00:51.592Z,45.28
2019-03-17T23:15:51.321Z,45.18
2019-03-17T23:30:51.516Z,45.58
2019-03-17T23:45:51.619Z,46.86
